createdAt,value
2023-04-30T00:00:54.948Z,8.26
2023-04-30T00:03:21.695Z,7.89
2023-04-30T00:05:51.684Z,8.11
2023-04-30T00:08:18.388Z,7.97
2023-04-30T00:10:45.006Z,8.11
2023-04-30T00:13:13.834Z,7.56
2023-04-30T00:15:41.382Z,7.69
2023-04-30T00:18:08.082Z,7.97
2023-04-30T00:20:37.542Z,8.09
2023-04-30T00:23:04.138Z,7.90
2023-04-30T00:25:30.757Z,7.97
2023-04-30T00:27:57.358Z,7.86
2023-04-30T00:30:23.993Z,7.71
2023-04-30T00:32:50.604Z,7.71
2023-04-30T00:35:17.304Z,7.63
2023-04-30T00:37:43.836Z,7.49
2023-04-30T00:40:12.498Z,7.41
2023-04-30T00:42:39.061Z,7.35
2023-04-30T00:45:06.282Z,7.29
2023-04-30T00:47:32.948Z,7.17
2023-04-30T00:49:59.791Z,7.19
2023-04-30T00:52:27.358Z,7.23
2023-04-30T00:54:54.426Z,7.06
2023-04-30T00:57:21.651Z,7.17
2023-04-30T00:59:48.833Z,7.07
2023-04-30T01:02:15.714Z,7.04
2023-04-30T01:04:42.516Z,7.15
2023-04-30T01:07:09.454Z,7.09
2023-04-30T01:09:36.554Z,7.17
2023-04-30T01:12:18.416Z,7.22
2023-04-30T01:15:08.643Z,6.84
2023-04-30T01:17:45.223Z,7.24
2023-04-30T01:20:12.951Z,7.37
2023-04-30T01:22:52.052Z,7.24
2023-04-30T01:25:40.423Z,7.47
2023-04-30T01:28:14.856Z,7.45
2023-04-30T01:30:44.831Z,7.31
2023-04-30T01:33:14.380Z,7.27
2023-04-30T01:35:59.926Z,7.47
2023-04-30T01:38:32.538Z,7.37
2023-04-30T01:41:05.322Z,7.31
2023-04-30T01:43:46.408Z,7.30
2023-04-30T01:46:27.472Z,7.12
2023-04-30T01:49:31.830Z,7.08
2023-04-30T01:52:31.656Z,7.08
2023-04-30T01:55:08.082Z,6.57
2023-04-30T01:57:41.401Z,6.77
2023-04-30T02:00:11.615Z,6.72
2023-04-30T02:02:41.480Z,6.08
2023-04-30T02:05:08.502Z,6.65
2023-04-30T02:07:41.377Z,6.28
2023-04-30T02:10:09.049Z,6.66
2023-04-30T02:12:35.820Z,6.49
2023-04-30T02:15:03.701Z,6.55
2023-04-30T02:17:31.345Z,6.75
2023-04-30T02:19:58.898Z,6.21
2023-04-30T02:22:25.601Z,6.78
2023-04-30T02:24:58.692Z,6.86
2023-04-30T02:27:26.287Z,6.84
2023-04-30T02:29:54.028Z,6.38
2023-04-30T02:32:20.838Z,6.82
2023-04-30T02:34:47.692Z,6.77
2023-04-30T02:37:14.596Z,6.56
2023-04-30T02:39:41.560Z,6.41
2023-04-30T02:42:08.210Z,6.33
2023-04-30T02:44:35.586Z,6.41
2023-04-30T02:47:02.537Z,6.20
2023-04-30T02:49:29.846Z,6.01
2023-04-30T02:51:56.556Z,5.56
2023-04-30T02:54:23.196Z,6.05
2023-04-30T02:56:49.789Z,6.14
2023-04-30T02:59:16.428Z,5.60
2023-04-30T03:01:43.327Z,6.01
2023-04-30T03:04:09.864Z,6.01
2023-04-30T03:06:36.814Z,6.01
2023-04-30T03:09:03.680Z,5.88
2023-04-30T03:11:30.364Z,5.57
2023-04-30T03:13:57.104Z,6.03
2023-04-30T03:16:23.721Z,5.43
2023-04-30T03:18:50.346Z,5.96
2023-04-30T03:21:16.932Z,5.91
2023-04-30T03:23:43.509Z,5.88
2023-04-30T03:26:10.220Z,5.71
2023-04-30T03:28:36.810Z,5.73
2023-04-30T03:31:05.442Z,5.86
2023-04-30T03:33:33.173Z,5.93
2023-04-30T03:36:00.021Z,6.01
2023-04-30T03:38:26.773Z,5.84
2023-04-30T03:40:53.331Z,6.00
2023-04-30T03:43:20.756Z,5.96
2023-04-30T03:45:47.514Z,6.24
2023-04-30T03:48:14.283Z,6.26
2023-04-30T03:50:40.991Z,6.16
2023-04-30T03:53:07.599Z,6.31
2023-04-30T03:55:35.960Z,6.22
2023-04-30T03:58:02.717Z,6.39
2023-04-30T04:00:29.488Z,5.86
2023-04-30T04:02:59.140Z,6.47
2023-04-30T04:05:26.433Z,6.42
2023-04-30T04:07:53.747Z,6.47
2023-04-30T04:10:20.595Z,6.27
2023-04-30T04:12:47.397Z,6.58
2023-04-30T04:15:14.412Z,6.48
2023-04-30T04:17:41.308Z,6.39
2023-04-30T04:20:08.798Z,6.41
2023-04-30T04:22:36.468Z,6.43
2023-04-30T04:25:03.252Z,6.46
2023-04-30T04:27:33.356Z,6.52
2023-04-30T04:29:59.918Z,6.58
2023-04-30T04:32:27.322Z,6.42
2023-04-30T04:34:54.397Z,6.46
2023-04-30T04:37:21.725Z,6.57
2023-04-30T04:39:48.507Z,6.60
2023-04-30T04:42:16.554Z,6.57
2023-04-30T04:44:43.877Z,6.70
2023-04-30T04:47:12.574Z,6.48
2023-04-30T04:49:39.226Z,6.89
2023-04-30T04:52:06.441Z,6.98
2023-04-30T04:54:33.538Z,7.04
2023-04-30T04:57:00.405Z,7.05
2023-04-30T04:59:27.108Z,6.97
2023-04-30T05:01:54.857Z,7.18
2023-04-30T05:04:21.685Z,7.01
2023-04-30T05:06:49.175Z,7.28
2023-04-30T05:09:15.831Z,7.17
2023-04-30T05:11:43.773Z,7.25
2023-04-30T05:14:10.361Z,7.45
2023-04-30T05:16:37.091Z,7.53
2023-04-30T05:19:03.759Z,6.94
2023-04-30T05:21:32.074Z,7.55
2023-04-30T05:23:58.757Z,7.67
2023-04-30T05:26:25.413Z,7.35
2023-04-30T05:28:52.527Z,7.32
2023-04-30T05:31:20.965Z,7.88
2023-04-30T05:33:48.259Z,7.35
2023-04-30T05:36:15.091Z,7.91
2023-04-30T05:38:41.958Z,8.03
2023-04-30T05:41:12.311Z,8.13
2023-04-30T05:43:41.448Z,8.23
2023-04-30T05:46:07.964Z,8.22
2023-04-30T05:48:34.607Z,8.32
2023-04-30T05:51:01.345Z,8.36
2023-04-30T05:53:27.897Z,8.51
2023-04-30T05:55:54.582Z,8.71
2023-04-30T05:58:21.246Z,8.59
2023-04-30T06:00:52.075Z,8.76
2023-04-30T06:03:19.419Z,8.57
2023-04-30T06:05:49.408Z,9.06
2023-04-30T06:08:16.254Z,8.94
2023-04-30T06:10:43.069Z,9.06
2023-04-30T06:13:09.743Z,9.28
2023-04-30T06:15:36.555Z,9.16
2023-04-30T06:18:03.623Z,9.59
2023-04-30T06:20:30.231Z,9.23
2023-04-30T06:22:56.774Z,10.19
2023-04-30T06:25:23.388Z,10.23
2023-04-30T06:27:51.624Z,10.89
2023-04-30T06:30:18.334Z,11.40
2023-04-30T06:32:44.982Z,11.84
2023-04-30T06:35:11.719Z,12.07
2023-04-30T06:37:38.388Z,12.88
2023-04-30T06:40:06.453Z,13.03
2023-04-30T06:42:36.532Z,13.29
2023-04-30T06:45:03.974Z,13.91
2023-04-30T06:47:34.731Z,13.79
2023-04-30T06:50:04.774Z,13.81
2023-04-30T06:52:31.459Z,14.40
2023-04-30T06:54:57.983Z,14.64
2023-04-30T06:57:25.601Z,14.94
2023-04-30T06:59:52.486Z,15.22
2023-04-30T07:02:21.297Z,15.62
2023-04-30T07:04:49.434Z,15.51
2023-04-30T07:07:16.133Z,15.42
2023-04-30T07:09:42.800Z,15.74
2023-04-30T07:12:11.097Z,16.40
2023-04-30T07:14:37.759Z,16.58
2023-04-30T07:17:04.318Z,16.45
2023-04-30T07:19:30.964Z,16.75
2023-04-30T07:21:57.544Z,17.09
2023-04-30T07:24:24.173Z,17.23
2023-04-30T07:26:50.824Z,17.73
2023-04-30T07:29:18.255Z,17.57
2023-04-30T07:31:44.882Z,17.57
2023-04-30T07:34:11.898Z,17.49
2023-04-30T07:36:41.695Z,17.66
2023-04-30T07:39:08.309Z,17.80
2023-04-30T07:41:34.994Z,17.68
2023-04-30T07:44:01.654Z,16.80
2023-04-30T07:46:28.495Z,17.62
2023-04-30T07:48:55.070Z,17.35
2023-04-30T07:51:21.680Z,18.12
2023-04-30T07:53:48.318Z,17.50
2023-04-30T07:56:14.965Z,18.43
2023-04-30T07:58:41.721Z,18.57
2023-04-30T08:01:09.327Z,18.56
2023-04-30T08:03:36.667Z,18.77
2023-04-30T08:06:04.882Z,18.76
2023-04-30T08:08:31.406Z,19.06
2023-04-30T08:10:57.969Z,19.01
2023-04-30T08:13:24.510Z,19.00
2023-04-30T08:15:51.172Z,19.37
2023-04-30T08:18:17.761Z,19.29
2023-04-30T08:20:44.630Z,19.04
2023-04-30T08:23:11.117Z,19.31
2023-04-30T08:25:37.712Z,19.06
2023-04-30T08:28:04.313Z,19.45
2023-04-30T08:30:30.823Z,19.42
2023-04-30T08:32:57.893Z,19.50
2023-04-30T08:35:24.731Z,19.81
2023-04-30T08:37:51.444Z,19.99
2023-04-30T08:40:18.057Z,20.26
2023-04-30T08:42:57.526Z,20.59
2023-04-30T08:45:24.407Z,20.61
2023-04-30T08:47:52.253Z,20.93
2023-04-30T08:50:21.163Z,20.83
2023-04-30T08:52:47.731Z,21.27
2023-04-30T08:55:14.269Z,21.07
2023-04-30T08:57:40.877Z,21.10
2023-04-30T09:00:08.353Z,21.01
2023-04-30T09:02:35.302Z,21.08
2023-04-30T09:05:02.375Z,21.12
2023-04-30T09:07:33.638Z,20.99
2023-04-30T09:10:00.793Z,21.13
2023-04-30T09:12:27.389Z,21.17
2023-04-30T09:15:06.376Z,21.52
2023-04-30T09:17:34.212Z,21.90
2023-04-30T09:20:13.915Z,21.81
2023-04-30T09:22:42.058Z,21.96
2023-04-30T09:25:10.206Z,22.14
2023-04-30T09:27:36.783Z,22.27
2023-04-30T09:30:03.724Z,22.39
2023-04-30T09:32:30.383Z,22.53
2023-04-30T09:34:56.966Z,22.40
2023-04-30T09:37:35.841Z,22.45
2023-04-30T09:40:02.612Z,22.99
2023-04-30T09:42:29.123Z,23.06
2023-04-30T09:44:55.843Z,22.85
2023-04-30T09:47:22.723Z,23.72
2023-04-30T09:49:52.314Z,23.69
2023-04-30T09:52:20.301Z,23.63
2023-04-30T09:54:47.824Z,23.67
2023-04-30T09:57:15.960Z,23.77
2023-04-30T09:59:45.187Z,23.50
2023-04-30T10:02:17.099Z,23.89
2023-04-30T10:04:45.230Z,23.64
2023-04-30T10:07:23.882Z,23.50
2023-04-30T10:09:57.913Z,24.06
2023-04-30T10:12:56.299Z,23.92
2023-04-30T10:15:30.876Z,24.26
2023-04-30T10:18:02.257Z,24.13
2023-04-30T10:20:31.455Z,24.58
2023-04-30T10:22:59.422Z,24.35
2023-04-30T10:25:27.822Z,24.64
2023-04-30T10:27:54.707Z,24.51
2023-04-30T10:30:22.566Z,24.08
2023-04-30T10:33:06.610Z,24.15
2023-04-30T10:35:51.042Z,24.46
2023-04-30T10:38:27.000Z,24.48
2023-04-30T10:40:58.180Z,24.83
2023-04-30T10:43:25.813Z,24.98
2023-04-30T10:45:52.689Z,25.50
2023-04-30T10:48:26.753Z,25.21
2023-04-30T10:50:59.441Z,25.56
2023-04-30T10:53:29.928Z,26.03
2023-04-30T10:56:08.909Z,26.02
2023-04-30T10:58:38.494Z,26.18
2023-04-30T11:01:17.828Z,26.30
2023-04-30T11:04:10.322Z,26.29
2023-04-30T11:07:02.127Z,26.34
2023-04-30T11:09:40.299Z,26.72
2023-04-30T11:12:15.626Z,27.47
2023-04-30T11:14:44.770Z,27.21
2023-04-30T11:17:13.502Z,27.02
2023-04-30T11:19:48.663Z,27.33
2023-04-30T11:22:17.035Z,27.87
2023-04-30T11:24:53.541Z,28.02
2023-04-30T11:27:43.059Z,27.76
2023-04-30T11:30:15.257Z,27.62
2023-04-30T11:32:43.771Z,27.86
2023-04-30T11:35:10.512Z,26.96
2023-04-30T11:37:39.484Z,27.50
2023-04-30T11:40:08.629Z,28.13
2023-04-30T11:42:35.353Z,28.13
2023-04-30T11:45:07.599Z,27.83
2023-04-30T11:47:47.537Z,28.16
2023-04-30T11:50:16.618Z,27.63
2023-04-30T11:52:49.551Z,27.51
2023-04-30T11:55:18.435Z,27.65
2023-04-30T11:57:54.948Z,27.96
2023-04-30T12:00:27.794Z,28.34
2023-04-30T12:02:55.541Z,28.46
2023-04-30T12:05:25.079Z,28.68
2023-04-30T12:07:57.301Z,28.45
2023-04-30T12:10:24.755Z,28.29
2023-04-30T12:12:53.153Z,28.22
2023-04-30T12:15:26.230Z,28.22
2023-04-30T12:17:55.105Z,28.14
2023-04-30T12:20:23.220Z,28.45
2023-04-30T12:22:50.453Z,28.54
2023-04-30T12:25:19.981Z,27.91
2023-04-30T12:27:48.323Z,26.81
2023-04-30T12:30:15.606Z,26.07
2023-04-30T12:32:44.780Z,27.34
2023-04-30T12:35:16.362Z,27.66
2023-04-30T12:37:44.697Z,28.51
2023-04-30T12:40:12.756Z,29.01
2023-04-30T12:42:39.605Z,29.04
2023-04-30T12:45:07.049Z,28.32
2023-04-30T12:47:39.448Z,28.68
2023-04-30T12:50:15.024Z,29.13
2023-04-30T12:52:41.822Z,29.07
2023-04-30T12:55:19.481Z,28.79
2023-04-30T12:58:08.532Z,29.88
2023-04-30T13:00:44.905Z,29.70
2023-04-30T13:03:13.164Z,30.02
2023-04-30T13:05:41.677Z,29.33
2023-04-30T13:08:08.317Z,29.38
2023-04-30T13:10:35.009Z,29.79
2023-04-30T13:13:01.823Z,29.42
2023-04-30T13:15:28.332Z,29.56
2023-04-30T13:17:55.811Z,29.44
2023-04-30T13:20:22.532Z,29.86
2023-04-30T13:22:49.327Z,29.78
2023-04-30T13:25:15.945Z,29.94
2023-04-30T13:27:42.734Z,30.50
2023-04-30T13:30:10.597Z,30.32
2023-04-30T13:32:37.299Z,29.93
2023-04-30T13:35:04.121Z,29.95
2023-04-30T13:37:31.324Z,29.31
2023-04-30T13:39:59.393Z,29.73
2023-04-30T13:42:26.772Z,30.34
2023-04-30T13:44:53.273Z,30.54
2023-04-30T13:47:21.372Z,30.85
2023-04-30T13:49:48.105Z,30.97
2023-04-30T13:52:14.665Z,30.88
2023-04-30T13:54:41.466Z,30.80
2023-04-30T13:57:08.044Z,29.33
2023-04-30T13:59:34.707Z,27.39
2023-04-30T14:02:01.372Z,26.34
2023-04-30T14:04:27.975Z,26.26
2023-04-30T14:06:56.636Z,25.83
2023-04-30T14:09:23.542Z,26.67
2023-04-30T14:11:50.112Z,27.64
2023-04-30T14:14:16.682Z,28.63
2023-04-30T14:16:44.782Z,28.39
2023-04-30T14:19:11.596Z,26.45
2023-04-30T14:21:38.098Z,25.76
2023-04-30T14:24:05.038Z,26.37
2023-04-30T14:26:31.602Z,25.49
2023-04-30T14:28:58.151Z,24.64
2023-04-30T14:31:24.739Z,24.11
2023-04-30T14:33:51.332Z,25.71
2023-04-30T14:36:18.015Z,27.37
2023-04-30T14:38:44.503Z,28.68
2023-04-30T14:41:12.512Z,29.32
2023-04-30T14:43:39.746Z,29.70
2023-04-30T14:46:06.691Z,30.06
2023-04-30T14:48:33.541Z,30.47
2023-04-30T14:51:01.302Z,29.61
2023-04-30T14:53:27.849Z,26.94
2023-04-30T14:55:54.392Z,25.59
2023-04-30T14:58:21.100Z,24.00
2023-04-30T15:00:48.386Z,23.89
2023-04-30T15:03:15.006Z,25.98
2023-04-30T15:05:41.727Z,28.10
2023-04-30T15:08:08.350Z,29.25
2023-04-30T15:10:35.368Z,27.81
2023-04-30T15:13:05.137Z,26.05
2023-04-30T15:15:31.861Z,24.75
2023-04-30T15:17:59.123Z,24.08
2023-04-30T15:20:25.648Z,22.90
2023-04-30T15:22:54.684Z,22.59
2023-04-30T15:25:24.399Z,22.47
2023-04-30T15:27:51.863Z,23.83
2023-04-30T15:30:19.144Z,26.27
2023-04-30T15:32:47.090Z,27.36
2023-04-30T15:35:14.713Z,27.42
2023-04-30T15:37:41.216Z,25.90
2023-04-30T15:40:10.852Z,26.51
2023-04-30T15:42:38.201Z,25.40
2023-04-30T15:45:05.166Z,24.19
2023-04-30T15:47:31.789Z,23.31
2023-04-30T15:49:58.421Z,22.22
2023-04-30T15:52:25.009Z,22.58
2023-04-30T15:54:51.523Z,22.19
2023-04-30T15:57:18.271Z,22.29
2023-04-30T15:59:44.879Z,23.87
2023-04-30T16:02:11.889Z,25.22
2023-04-30T16:04:38.649Z,25.56
2023-04-30T16:07:05.360Z,25.15
2023-04-30T16:09:32.683Z,24.47
2023-04-30T16:11:59.578Z,23.61
2023-04-30T16:14:26.152Z,22.25
2023-04-30T16:16:52.818Z,23.02
2023-04-30T16:19:19.626Z,24.11
2023-04-30T16:21:46.266Z,24.65
2023-04-30T16:24:12.813Z,25.17
2023-04-30T16:26:39.314Z,25.62
2023-04-30T16:29:06.013Z,25.76
2023-04-30T16:31:32.728Z,25.72
2023-04-30T16:34:01.042Z,25.13
2023-04-30T16:36:28.028Z,25.35
2023-04-30T16:38:54.590Z,24.71
2023-04-30T16:41:21.446Z,24.22
2023-04-30T16:43:48.133Z,23.75
2023-04-30T16:46:14.660Z,23.83
2023-04-30T16:48:41.164Z,24.02
2023-04-30T16:51:09.457Z,24.17
2023-04-30T16:53:36.111Z,24.22
2023-04-30T16:56:02.697Z,24.80
2023-04-30T16:58:29.223Z,24.17
2023-04-30T17:00:56.236Z,24.45
2023-04-30T17:03:23.883Z,24.06
2023-04-30T17:05:53.114Z,23.94
2023-04-30T17:08:22.607Z,23.84
2023-04-30T17:10:49.097Z,23.48
2023-04-30T17:13:15.699Z,23.63
2023-04-30T17:15:43.292Z,23.01
2023-04-30T17:18:11.410Z,22.68
2023-04-30T17:20:38.088Z,22.37
2023-04-30T17:23:04.658Z,21.62
2023-04-30T17:25:31.940Z,21.06
2023-04-30T17:28:01.558Z,20.30
2023-04-30T17:30:31.283Z,20.52
2023-04-30T17:33:00.193Z,20.18
2023-04-30T17:35:27.462Z,19.80
2023-04-30T17:37:54.434Z,19.54
2023-04-30T17:40:20.957Z,19.24
2023-04-30T17:42:47.569Z,19.09
2023-04-30T17:45:14.088Z,19.02
2023-04-30T17:47:40.894Z,18.89
2023-04-30T17:50:08.835Z,18.67
2023-04-30T17:52:38.814Z,18.64
2023-04-30T17:55:08.942Z,18.50
2023-04-30T17:57:36.400Z,18.32
2023-04-30T18:00:04.886Z,17.73
2023-04-30T18:02:40.025Z,17.83
2023-04-30T18:05:06.870Z,17.63
2023-04-30T18:07:33.413Z,17.35
2023-04-30T18:10:00.185Z,17.38
2023-04-30T18:12:27.020Z,17.22
2023-04-30T18:14:53.565Z,17.01
2023-04-30T18:17:20.146Z,16.99
2023-04-30T18:19:48.636Z,16.89
2023-04-30T18:22:15.395Z,16.33
2023-04-30T18:24:42.455Z,16.60
2023-04-30T18:27:09.226Z,16.44
2023-04-30T18:29:36.418Z,16.03
2023-04-30T18:32:03.227Z,16.15
2023-04-30T18:34:29.827Z,16.09
2023-04-30T18:36:56.852Z,15.48
2023-04-30T18:39:23.434Z,15.67
2023-04-30T18:41:51.038Z,15.15
2023-04-30T18:44:17.609Z,15.47
2023-04-30T18:46:44.151Z,15.38
2023-04-30T18:49:10.694Z,14.68
2023-04-30T18:51:37.705Z,15.14
2023-04-30T18:54:04.331Z,14.98
2023-04-30T18:56:30.861Z,14.87
2023-04-30T18:58:57.764Z,14.63
2023-04-30T19:01:27.241Z,14.70
2023-04-30T19:03:54.278Z,14.15
2023-04-30T19:06:21.012Z,14.23
2023-04-30T19:08:47.920Z,14.27
2023-04-30T19:11:14.546Z,14.15
2023-04-30T19:13:41.151Z,14.17
2023-04-30T19:16:07.783Z,13.96
2023-04-30T19:18:35.126Z,13.32
2023-04-30T19:21:02.273Z,13.73
2023-04-30T19:23:32.302Z,13.74
2023-04-30T19:25:59.781Z,13.26
2023-04-30T19:28:26.674Z,12.89
2023-04-30T19:30:54.629Z,13.55
2023-04-30T19:33:22.465Z,13.08
2023-04-30T19:35:50.082Z,13.46
2023-04-30T19:38:17.300Z,13.40
2023-04-30T19:40:48.253Z,13.18
2023-04-30T19:43:14.996Z,13.23
2023-04-30T19:45:52.752Z,12.23
2023-04-30T19:48:21.238Z,12.67
2023-04-30T19:50:48.979Z,13.12
2023-04-30T19:53:16.767Z,12.96
2023-04-30T19:55:44.040Z,12.92
2023-04-30T19:58:10.677Z,12.87
2023-04-30T20:00:40.448Z,12.07
2023-04-30T20:03:07.131Z,12.43
2023-04-30T20:05:36.134Z,12.81
2023-04-30T20:08:04.281Z,12.83
2023-04-30T20:10:31.675Z,12.77
2023-04-30T20:12:58.334Z,12.71
2023-04-30T20:15:25.192Z,12.74
2023-04-30T20:17:52.293Z,12.65
2023-04-30T20:20:20.979Z,12.61
2023-04-30T20:22:50.284Z,12.34
2023-04-30T20:25:16.940Z,12.42
2023-04-30T20:27:43.762Z,12.10
2023-04-30T20:30:11.650Z,12.37
2023-04-30T20:32:39.494Z,12.42
2023-04-30T20:35:09.679Z,12.40
2023-04-30T20:37:36.786Z,12.47
2023-04-30T20:40:03.913Z,12.41
2023-04-30T20:42:30.733Z,11.87
2023-04-30T20:44:57.347Z,12.43
2023-04-30T20:47:23.955Z,12.43
2023-04-30T20:49:51.171Z,12.30
2023-04-30T20:52:18.619Z,12.31
2023-04-30T20:54:45.780Z,12.21
2023-04-30T20:57:12.757Z,12.23
2023-04-30T20:59:39.320Z,12.27
2023-04-30T21:02:06.406Z,12.31
2023-04-30T21:04:32.920Z,12.14
2023-04-30T21:06:59.458Z,12.08
2023-04-30T21:09:26.008Z,12.23
2023-04-30T21:11:53.107Z,11.30
2023-04-30T21:14:19.638Z,12.13
2023-04-30T21:16:46.264Z,12.18
2023-04-30T21:19:13.323Z,12.12
2023-04-30T21:21:40.127Z,12.11
2023-04-30T21:24:07.453Z,11.89
2023-04-30T21:26:34.416Z,12.09
2023-04-30T21:29:02.356Z,11.62
2023-04-30T21:31:29.257Z,12.07
2023-04-30T21:33:56.072Z,11.89
2023-04-30T21:36:22.929Z,11.94
2023-04-30T21:38:49.496Z,12.06
2023-04-30T21:41:17.128Z,12.11
2023-04-30T21:43:44.010Z,11.57
2023-04-30T21:46:11.054Z,11.60
2023-04-30T21:48:38.422Z,12.16
2023-04-30T21:51:12.826Z,12.11
2023-04-30T21:53:39.392Z,12.15
2023-04-30T21:56:10.013Z,12.09
2023-04-30T21:58:37.320Z,12.11
2023-04-30T22:01:05.073Z,11.77
2023-04-30T22:03:32.191Z,12.04
2023-04-30T22:05:58.967Z,12.02
2023-04-30T22:08:25.697Z,12.10
2023-04-30T22:10:58.377Z,11.66
2023-04-30T22:13:25.565Z,12.18
2023-04-30T22:15:52.703Z,11.83
2023-04-30T22:18:19.804Z,11.72
2023-04-30T22:20:49.501Z,12.25
2023-04-30T22:23:16.803Z,12.28
2023-04-30T22:25:43.549Z,12.01
2023-04-30T22:28:10.231Z,12.56
2023-04-30T22:30:37.733Z,12.54
2023-04-30T22:33:04.425Z,12.59
2023-04-30T22:35:32.704Z,12.70
2023-04-30T22:38:00.423Z,12.54
2023-04-30T22:40:27.240Z,12.13
2023-04-30T22:42:54.216Z,12.60
2023-04-30T22:45:20.843Z,12.09
2023-04-30T22:47:47.737Z,12.39
2023-04-30T22:50:14.337Z,12.52
2023-04-30T22:52:40.979Z,12.02
2023-04-30T22:55:08.266Z,12.08
2023-04-30T22:57:34.798Z,12.08
2023-04-30T23:00:01.731Z,12.37
2023-04-30T23:02:28.768Z,12.45
2023-04-30T23:04:55.510Z,12.48
2023-04-30T23:07:22.041Z,12.39
2023-04-30T23:09:48.736Z,12.51
2023-04-30T23:12:15.955Z,12.51
2023-04-30T23:14:42.556Z,11.90
2023-04-30T23:17:09.275Z,12.52
2023-04-30T23:19:36.037Z,12.57
2023-04-30T23:22:02.565Z,12.55
2023-04-30T23:24:29.118Z,12.47
2023-04-30T23:26:57.748Z,12.51
2023-04-30T23:29:25.058Z,12.48
2023-04-30T23:31:53.787Z,12.19
2023-04-30T23:34:21.112Z,12.59
2023-04-30T23:36:47.802Z,12.56
2023-04-30T23:39:14.703Z,12.53
2023-04-30T23:41:41.285Z,12.65
2023-04-30T23:44:08.196Z,12.55
2023-04-30T23:46:34.768Z,12.60
2023-04-30T23:49:01.318Z,12.69
2023-04-30T23:51:27.873Z,12.54
2023-04-30T23:53:54.370Z,12.73
2023-04-30T23:56:20.886Z,12.18
2023-04-30T23:58:47.504Z,12.38
